AAL3237 KORD-KLGA
Flight info
| Callsign | AAL3237 |
|---|---|
| Flight time | N/A |
| Altitude | 35000 |
| Route | MOBLE ADIME GERBS Q186 WEVEL ETG MIP4 |
| Aircraft | B738/M-SDE2E3FGHIRWXY/LB1 |
Departure
| Time | 2026-05-01 15:20 |
|---|---|
| Airport | Chicago O'Hare International Airport (KORD) |
Arrival
| Time | N/A |
|---|---|
| Airport | LaGuardia Airport (KLGA) |
| Time | Latitude | Longitude | Altitude | Speed | Heading |
|---|---|---|---|---|---|
| 2026-05-01 14:23 | 41.97505 | -87.89761 | 659 ft | 0 kts | 200° |
| 2026-05-01 14:58 | 41.97506 | -87.89760 | 659 ft | 1 kts | 201° |
| 2026-05-01 14:59 | 41.97519 | -87.89753 | 659 ft | 2 kts | 200° |
| 2026-05-01 14:59 | 41.97533 | -87.89746 | 659 ft | 2 kts | 200° |
| 2026-05-01 14:59 | 41.97543 | -87.89741 | 659 ft | 0 kts | 200° |
| 2026-05-01 14:59 | 41.97550 | -87.89738 | 659 ft | 1 kts | 153° |
| 2026-05-01 15:00 | 41.97557 | -87.89752 | 659 ft | 0 kts | 109° |
| 2026-05-01 15:00 | 41.97557 | -87.89753 | 659 ft | 0 kts | 109° |
| 2026-05-01 15:01 | 41.97556 | -87.89749 | 659 ft | 2 kts | 110° |
| 2026-05-01 15:02 | 41.97530 | -87.89657 | 658 ft | 18 kts | 110° |
| 2026-05-01 15:02 | 41.97515 | -87.89602 | 657 ft | 14 kts | 110° |
| 2026-05-01 15:02 | 41.97512 | -87.89590 | 657 ft | 0 kts | 110° |
| 2026-05-01 15:03 | 41.97511 | -87.89590 | 657 ft | 0 kts | 110° |
| 2026-05-01 15:12 | 41.97517 | -87.89437 | 657 ft | 21 kts | 12° |
| 2026-05-01 15:12 | 41.97674 | -87.89433 | 657 ft | 24 kts | 1° |
| 2026-05-01 15:13 | 41.98273 | -87.89037 | 654 ft | 35 kts | 1° |
| 2026-05-01 15:14 | 41.98680 | -87.89156 | 654 ft | 30 kts | 261° |
| 2026-05-01 15:14 | 41.98680 | -87.89439 | 655 ft | 25 kts | 270° |
| 2026-05-01 15:14 | 41.98679 | -87.89907 | 658 ft | 29 kts | 271° |
| 2026-05-01 15:15 | 41.98680 | -87.90159 | 658 ft | 8 kts | 270° |
| 2026-05-01 15:15 | 41.98680 | -87.90461 | 659 ft | 26 kts | 270° |
| 2026-05-01 15:16 | 41.98680 | -87.90925 | 660 ft | 23 kts | 269° |
| 2026-05-01 15:16 | 41.98681 | -87.91323 | 663 ft | 21 kts | 271° |
| 2026-05-01 15:17 | 41.98678 | -87.91692 | 667 ft | 17 kts | 270° |
| 2026-05-01 15:18 | 41.98680 | -87.92200 | 671 ft | 21 kts | 270° |
| 2026-05-01 15:18 | 41.98684 | -87.92379 | 672 ft | 9 kts | 298° |
| 2026-05-01 15:19 | 41.98757 | -87.92407 | 672 ft | 9 kts | 3° |
| 2026-05-01 15:19 | 41.98827 | -87.92371 | 672 ft | 0 kts | 90° |
| 2026-05-01 15:19 | 41.98827 | -87.92361 | 672 ft | 4 kts | 90° |
| 2026-05-01 15:20 | 41.98830 | -87.90823 | 659 ft | 158 kts | 89° |
| 2026-05-01 15:20 | 41.98842 | -87.89204 | 1085 ft | 183 kts | 88° |
| 2026-05-01 15:20 | 41.98671 | -87.87556 | 1996 ft | 187 kts | 110° |
| 2026-05-01 15:21 | 41.98138 | -87.85922 | 2680 ft | 195 kts | 102° |
| 2026-05-01 15:21 | 41.97968 | -87.84076 | 3215 ft | 205 kts | 89° |
| 2026-05-01 15:21 | 41.97902 | -87.82120 | 3838 ft | 214 kts | 89° |
| 2026-05-01 15:21 | 41.97819 | -87.80057 | 4308 ft | 232 kts | 89° |
| 2026-05-01 15:22 | 41.97624 | -87.75406 | 5496 ft | 264 kts | 90° |
| 2026-05-01 15:22 | 41.97522 | -87.72884 | 6167 ft | 276 kts | 90° |
| 2026-05-01 15:22 | 41.97414 | -87.70301 | 6994 ft | 282 kts | 90° |
| 2026-05-01 15:23 | 41.97301 | -87.67677 | 7823 ft | 287 kts | 90° |
| 2026-05-01 15:23 | 41.97185 | -87.65005 | 8646 ft | 292 kts | 90° |
| 2026-05-01 15:23 | 41.97068 | -87.62290 | 9463 ft | 296 kts | 90° |
| 2026-05-01 15:23 | 41.96949 | -87.59504 | 10278 ft | 301 kts | 90° |
| 2026-05-01 15:24 | 41.96829 | -87.56670 | 10796 ft | 316 kts | 90° |
| 2026-05-01 15:24 | 41.96702 | -87.53653 | 11238 ft | 332 kts | 90° |
| 2026-05-01 15:24 | 41.96567 | -87.50483 | 11682 ft | 348 kts | 90° |
| 2026-05-01 15:24 | 41.96424 | -87.47159 | 12137 ft | 364 kts | 90° |
| 2026-05-01 15:25 | 41.96273 | -87.43691 | 12527 ft | 379 kts | 91° |
| 2026-05-01 15:25 | 41.96115 | -87.40134 | 13215 ft | 387 kts | 91° |
| 2026-05-01 15:25 | 41.95952 | -87.36568 | 13953 ft | 391 kts | 91° |
| 2026-05-01 15:25 | 41.95782 | -87.32882 | 14617 ft | 397 kts | 91° |
| 2026-05-01 15:26 | 41.95617 | -87.29276 | 15275 ft | 402 kts | 91° |
| 2026-05-01 15:26 | 41.95446 | -87.25526 | 15874 ft | 408 kts | 91° |
| 2026-05-01 15:26 | 41.95269 | -87.21669 | 16545 ft | 413 kts | 91° |
| 2026-05-01 15:26 | 41.95092 | -87.17795 | 17163 ft | 418 kts | 91° |
| 2026-05-01 15:27 | 41.94913 | -87.13926 | 17741 ft | 423 kts | 91° |
| 2026-05-01 15:27 | 41.94729 | -87.09969 | 18346 ft | 428 kts | 91° |
| 2026-05-01 15:27 | 41.94544 | -87.05963 | 18886 ft | 434 kts | 91° |
| 2026-05-01 15:28 | 41.94484 | -86.97825 | 20076 ft | 441 kts | 86° |
| 2026-05-01 15:28 | 41.94574 | -86.93679 | 20656 ft | 445 kts | 86° |
| 2026-05-01 15:28 | 41.94684 | -86.89517 | 21258 ft | 448 kts | 85° |
| 2026-05-01 15:29 | 41.94891 | -86.81078 | 22278 ft | 458 kts | 86° |
| 2026-05-01 15:29 | 41.94976 | -86.76782 | 22800 ft | 462 kts | 86° |
| 2026-05-01 15:29 | 41.95121 | -86.68121 | 23746 ft | 471 kts | 87° |
| 2026-05-01 15:30 | 41.95244 | -86.59257 | 24713 ft | 479 kts | 87° |
| 2026-05-01 15:31 | 41.95450 | -86.41122 | 26499 ft | 494 kts | 87° |
| 2026-05-01 15:31 | 41.95544 | -86.31837 | 27340 ft | 501 kts | 88° |
| 2026-05-01 15:32 | 41.95616 | -86.22396 | 28140 ft | 508 kts | 90° |
| 2026-05-01 15:32 | 41.95136 | -86.13015 | 29136 ft | 507 kts | 96° |
| 2026-05-01 15:33 | 41.93698 | -85.98849 | 30279 ft | 509 kts | 98° |
| 2026-05-01 15:34 | 41.92226 | -85.84690 | 31202 ft | 512 kts | 98° |